createdAt,value
2023-11-14T00:01:58.394Z,95909.44
2023-11-14T00:04:00.062Z,95911.47
2023-11-14T00:06:01.626Z,95924.38
2023-11-14T00:08:03.464Z,95918.03
2023-11-14T00:10:07.762Z,95918.81
2023-11-14T00:12:09.361Z,95909.41
2023-11-14T00:14:10.922Z,95898.56
2023-11-14T00:16:12.524Z,95893.88
2023-11-14T00:18:14.386Z,95893.25
2023-11-14T00:20:16.129Z,95902.91
2023-11-14T00:22:17.656Z,95904.91
2023-11-14T00:24:19.204Z,95886.47
2023-11-14T00:26:22.136Z,95892.44
2023-11-14T00:28:23.639Z,95887.69
2023-11-14T00:30:25.145Z,95875.63
2023-11-14T00:32:26.767Z,95895.84
2023-11-14T00:34:28.296Z,95901.16
2023-11-14T00:36:29.783Z,95910.16
2023-11-14T00:38:31.345Z,95897.88
2023-11-14T00:40:32.920Z,95896.84
2023-11-14T00:42:35.821Z,95904.41
2023-11-14T00:44:37.393Z,95898.69
2023-11-14T00:46:38.968Z,95897.28
2023-11-14T00:48:40.704Z,95907.53
2023-11-14T00:50:42.366Z,95898.75
2023-11-14T00:52:43.895Z,95916.75
2023-11-14T00:54:45.550Z,95915.94
2023-11-14T00:56:47.077Z,95902.41
2023-11-14T00:58:50.623Z,95902.63
2023-11-14T01:00:52.268Z,95907.78
2023-11-14T01:02:54.058Z,95899.59
2023-11-14T01:04:55.719Z,95917.22
2023-11-14T01:06:57.261Z,95926.63
2023-11-14T01:08:58.952Z,95910.66
2023-11-14T01:11:00.621Z,95921.28
2023-11-14T01:13:02.232Z,95920.47
2023-11-14T01:15:05.817Z,95932.34
2023-11-14T01:17:07.394Z,95938.03
2023-11-14T01:19:09.071Z,95941.34
2023-11-14T01:21:15.729Z,95948.69
2023-11-14T01:23:17.361Z,95946.28
2023-11-14T01:25:19.011Z,95950.78
2023-11-14T01:27:20.582Z,95935.19
2023-11-14T01:29:22.118Z,95964.28
2023-11-14T01:31:25.133Z,95961.63
2023-11-14T01:33:26.706Z,95973.31
2023-11-14T01:35:28.407Z,95975.78
2023-11-14T01:37:30.006Z,95971.06
2023-11-14T01:39:31.545Z,95965.75
2023-11-14T01:41:33.178Z,95963.91
2023-11-14T01:43:41.764Z,95949.16
2023-11-14T01:45:43.442Z,95959.63
2023-11-14T01:47:46.530Z,95953.47
2023-11-14T01:49:48.289Z,95963.09
2023-11-14T01:51:50.165Z,95972.72
2023-11-14T01:53:53.080Z,95962.25
2023-11-14T01:55:55.165Z,95967.72
2023-11-14T01:57:56.922Z,95961.81
2023-11-14T01:59:59.491Z,95969.16
2023-11-14T02:02:01.182Z,95949.53
2023-11-14T02:04:09.886Z,95952.75
2023-11-14T02:06:11.540Z,95948.22
2023-11-14T02:08:13.360Z,95951.69
2023-11-14T02:10:15.013Z,95943.91
2023-11-14T02:12:16.644Z,95935.47
2023-11-14T02:14:18.324Z,95944.47
2023-11-14T02:16:19.920Z,95955.13
2023-11-14T02:18:21.567Z,95966.16
2023-11-14T02:20:24.476Z,95961.69
2023-11-14T02:22:27.573Z,95960.50
2023-11-14T02:24:31.457Z,95963.78
2023-11-14T02:26:34.879Z,95956.41
2023-11-14T02:28:36.489Z,95971.59
2023-11-14T02:30:38.610Z,95971.19
2023-11-14T02:32:40.392Z,95968.06
2023-11-14T02:34:42.096Z,95962.06
2023-11-14T02:36:43.702Z,95975.41
2023-11-14T02:38:45.217Z,95969.44
2023-11-14T02:40:47.494Z,95959.63
2023-11-14T02:42:50.774Z,95952.47
2023-11-14T02:44:52.354Z,95948.22
2023-11-14T02:46:53.945Z,95935.72
2023-11-14T02:48:55.585Z,95953.94
2023-11-14T02:50:57.545Z,95948.63
2023-11-14T02:52:59.106Z,95920.34
2023-11-14T02:55:00.667Z,95927.72
2023-11-14T02:57:02.235Z,95938.13
2023-11-14T02:59:05.288Z,95947.06
2023-11-14T03:01:06.967Z,95935.81
2023-11-14T03:03:08.863Z,95940.72
2023-11-14T03:05:10.531Z,95952.16
2023-11-14T03:07:12.140Z,95965.25
2023-11-14T03:09:13.664Z,95984.97
2023-11-14T03:11:15.211Z,95976.38
2023-11-14T03:13:16.779Z,95966.50
2023-11-14T03:15:19.678Z,95966.50
2023-11-14T03:17:21.221Z,95968.41
2023-11-14T03:19:23.124Z,95971.19
2023-11-14T03:21:24.696Z,95983.34
2023-11-14T03:23:26.198Z,95983.47
2023-11-14T03:25:27.755Z,95992.22
2023-11-14T03:27:29.298Z,95992.66
2023-11-14T03:29:30.805Z,95992.69
2023-11-14T03:31:33.765Z,96012.78
2023-11-14T03:33:35.374Z,96004.44
2023-11-14T03:35:36.903Z,96010.75
2023-11-14T03:37:38.421Z,96029.63
2023-11-14T03:39:41.461Z,96018.56
2023-11-14T03:41:42.944Z,96017.34
2023-11-14T03:43:44.513Z,96019.00
2023-11-14T03:45:46.108Z,96026.97
2023-11-14T03:47:49.126Z,96036.41
2023-11-14T03:49:50.712Z,96019.00
2023-11-14T03:51:52.253Z,96009.53
2023-11-14T03:53:53.776Z,96015.16
2023-11-14T03:55:55.327Z,96006.38
2023-11-14T03:57:56.823Z,96004.22
2023-11-14T03:59:58.453Z,96012.09
2023-11-14T04:02:00.028Z,96022.75
2023-11-14T04:04:03.014Z,96032.56
2023-11-14T04:06:05.201Z,96024.84
2023-11-14T04:08:06.797Z,96030.97
2023-11-14T04:10:08.973Z,96038.31
2023-11-14T04:12:10.584Z,96035.16
2023-11-14T04:14:12.213Z,96038.44
2023-11-14T04:16:13.814Z,96043.75
2023-11-14T04:18:15.542Z,96039.06
2023-11-14T04:20:18.482Z,96049.06
2023-11-14T04:22:19.968Z,96054.78
2023-11-14T04:24:21.510Z,96072.50
2023-11-14T04:26:23.098Z,96055.91
2023-11-14T04:28:24.657Z,96043.22
2023-11-14T04:30:26.212Z,96046.00
2023-11-14T04:32:27.860Z,96042.38
2023-11-14T04:34:29.941Z,96039.06
2023-11-14T04:36:32.959Z,96034.13
2023-11-14T04:38:35.151Z,96038.00
2023-11-14T04:40:36.773Z,96036.63
2023-11-14T04:42:38.306Z,96057.78
2023-11-14T04:44:39.934Z,96039.00
2023-11-14T04:46:43.549Z,96052.91
2023-11-14T04:48:45.201Z,96060.50
2023-11-14T04:50:46.743Z,96072.16
2023-11-14T04:52:49.658Z,96062.53
2023-11-14T04:54:51.209Z,96069.69
2023-11-14T04:56:52.716Z,96059.09
2023-11-14T04:58:54.526Z,96062.78
2023-11-14T05:00:56.219Z,96056.84
2023-11-14T05:02:57.880Z,96061.91
2023-11-14T05:04:59.461Z,96080.69
2023-11-14T05:07:01.045Z,96084.81
2023-11-14T05:09:04.207Z,96085.63
2023-11-14T05:11:06.596Z,96079.94
2023-11-14T05:13:08.216Z,96101.25
2023-11-14T05:15:10.494Z,96089.78
2023-11-14T05:17:12.085Z,96093.84
2023-11-14T05:19:13.815Z,96094.66
2023-11-14T05:21:15.495Z,96088.97
2023-11-14T05:23:17.296Z,96075.81
2023-11-14T05:25:20.274Z,96079.97
2023-11-14T05:27:22.005Z,96077.94
2023-11-14T05:29:23.570Z,96082.88
2023-11-14T05:31:25.152Z,96079.22
2023-11-14T05:33:26.682Z,96086.16
2023-11-14T05:35:29.054Z,96089.06
2023-11-14T05:37:30.731Z,96095.78
2023-11-14T05:39:32.300Z,96098.88
2023-11-14T05:41:35.173Z,96097.94
2023-11-14T05:43:36.730Z,96104.19
2023-11-14T05:45:38.324Z,96108.78
2023-11-14T05:47:39.981Z,96105.00
2023-11-14T05:49:41.605Z,96097.19
2023-11-14T05:51:43.276Z,96093.13
2023-11-14T05:53:44.807Z,96086.78
2023-11-14T05:55:46.477Z,96086.16
2023-11-14T05:57:49.528Z,96089.84
2023-11-14T05:59:51.050Z,96089.97
2023-11-14T06:01:52.836Z,96088.34
2023-11-14T06:03:54.695Z,96099.34
2023-11-14T06:05:56.444Z,96107.50
2023-11-14T06:07:58.031Z,96106.06
2023-11-14T06:09:59.530Z,96097.84
2023-11-14T06:12:01.076Z,96104.41
2023-11-14T06:14:04.042Z,96096.19
2023-11-14T06:16:06.598Z,96086.81
2023-11-14T06:18:08.184Z,96084.16
2023-11-14T06:20:11.097Z,96087.28
2023-11-14T06:22:12.846Z,96101.13
2023-11-14T06:24:14.562Z,96093.72
2023-11-14T06:26:16.157Z,96082.38
2023-11-14T06:28:17.738Z,96083.66
2023-11-14T06:30:21.017Z,96094.34
2023-11-14T06:32:22.559Z,96099.06
2023-11-14T06:34:24.111Z,96099.69
2023-11-14T06:36:25.684Z,96094.56
2023-11-14T06:38:27.737Z,96106.69
2023-11-14T06:40:29.986Z,96108.16
2023-11-14T06:42:31.667Z,96087.19
2023-11-14T06:44:33.373Z,96100.09
2023-11-14T06:46:36.284Z,96101.28
2023-11-14T06:48:37.887Z,96117.69
2023-11-14T06:50:44.491Z,96126.28
2023-11-14T06:52:47.129Z,96141.97
2023-11-14T06:54:48.684Z,96143.44
2023-11-14T06:56:50.223Z,96123.91
2023-11-14T06:58:51.752Z,96129.41
2023-11-14T07:00:53.373Z,96129.22
2023-11-14T07:02:56.405Z,96128.44
2023-11-14T07:04:58.056Z,96121.44
2023-11-14T07:06:59.615Z,96118.97
2023-11-14T07:09:01.103Z,96135.75
2023-11-14T07:11:02.684Z,96149.22
2023-11-14T07:13:04.240Z,96157.81
2023-11-14T07:15:06.949Z,96166.44
2023-11-14T07:17:08.506Z,96170.09
2023-11-14T07:19:11.402Z,96176.16
2023-11-14T07:21:12.920Z,96188.44
2023-11-14T07:23:14.481Z,96177.81
2023-11-14T07:25:16.054Z,96173.16
2023-11-14T07:27:17.571Z,96163.69
2023-11-14T07:29:19.160Z,96156.63
2023-11-14T07:31:20.760Z,96145.16
2023-11-14T07:33:22.337Z,96161.16
2023-11-14T07:35:25.213Z,96150.53
2023-11-14T07:37:26.729Z,96153.38
2023-11-14T07:39:28.225Z,96150.72
2023-11-14T07:41:29.938Z,96164.47
2023-11-14T07:43:31.516Z,96175.16
2023-11-14T07:45:33.313Z,96176.69
2023-11-14T07:47:34.957Z,96174.84
2023-11-14T07:49:36.649Z,96189.09
2023-11-14T07:51:39.556Z,96203.03
2023-11-14T07:53:41.082Z,96197.09
2023-11-14T07:55:42.933Z,96204.34
2023-11-14T07:57:44.507Z,96196.50
2023-11-14T07:59:46.028Z,96191.09
2023-11-14T08:01:47.554Z,96190.38
2023-11-14T08:03:49.208Z,96193.75
2023-11-14T08:05:53.071Z,96196.06
2023-11-14T08:07:56.175Z,96184.22
2023-11-14T08:09:57.733Z,96186.06
2023-11-14T08:11:59.302Z,96192.78
2023-11-14T08:14:00.886Z,96200.19
2023-11-14T08:16:02.534Z,96193.84
2023-11-14T08:18:04.107Z,96180.16
2023-11-14T08:20:06.435Z,96183.78
2023-11-14T08:22:07.953Z,96217.47
2023-11-14T08:24:11.012Z,96235.06
2023-11-14T08:26:12.601Z,96251.00
2023-11-14T08:28:14.247Z,96244.16
2023-11-14T08:30:16.121Z,96226.69
2023-11-14T08:32:17.747Z,96213.41
2023-11-14T08:34:19.308Z,96210.50
2023-11-14T08:36:20.840Z,96199.59
2023-11-14T08:38:22.398Z,96203.72
2023-11-14T08:40:25.280Z,96190.84
2023-11-14T08:42:26.818Z,96179.97
2023-11-14T08:44:28.340Z,96185.91
2023-11-14T08:46:29.861Z,96179.84
2023-11-14T08:48:31.505Z,96172.00
2023-11-14T08:50:33.039Z,96175.28
2023-11-14T08:52:34.543Z,96165.03
2023-11-14T08:54:36.110Z,96179.97
2023-11-14T08:56:38.971Z,96180.22
2023-11-14T08:58:40.511Z,96187.56
2023-11-14T09:00:42.063Z,96194.53
2023-11-14T09:02:43.717Z,96184.72
2023-11-14T09:04:45.299Z,96192.88
2023-11-14T09:06:48.808Z,96188.72
2023-11-14T09:08:51.546Z,96202.66
2023-11-14T09:10:53.145Z,96218.59
2023-11-14T09:12:56.008Z,96227.59
2023-11-14T09:14:57.533Z,96219.47
2023-11-14T09:16:59.218Z,96200.75
2023-11-14T09:19:00.910Z,96184.41
2023-11-14T09:21:02.656Z,96156.88
2023-11-14T09:23:05.647Z,96140.31
2023-11-14T09:25:07.952Z,96147.03
2023-11-14T09:27:09.554Z,96161.34
2023-11-14T09:29:12.428Z,96156.44
2023-11-14T09:31:14.061Z,96171.03
2023-11-14T09:33:15.589Z,96166.69
2023-11-14T09:35:17.560Z,96176.34
2023-11-14T09:37:19.339Z,96177.94
2023-11-14T09:39:26.532Z,96188.78
2023-11-14T09:41:30.239Z,96198.00
2023-11-14T09:43:33.320Z,96208.34
2023-11-14T09:45:37.146Z,96221.44
2023-11-14T09:47:38.583Z,96219.47
2023-11-14T09:49:40.201Z,96208.22
2023-11-14T09:51:43.076Z,96195.75
2023-11-14T09:53:45.031Z,96202.03
2023-11-14T09:55:46.926Z,96208.41
2023-11-14T09:57:49.964Z,96196.56
2023-11-14T09:59:51.963Z,96188.06
2023-11-14T10:01:55.016Z,96175.66
2023-11-14T10:03:57.075Z,96186.78
2023-11-14T10:05:58.681Z,96174.41
2023-11-14T10:08:00.607Z,96195.31
2023-11-14T10:10:02.369Z,96201.25
2023-11-14T10:12:17.740Z,96185.03
2023-11-14T10:14:25.208Z,96182.78
2023-11-14T10:16:26.829Z,96204.28
2023-11-14T10:18:32.776Z,96209.22
2023-11-14T10:20:47.433Z,96194.91
2023-11-14T10:22:52.263Z,96194.91
2023-11-14T10:24:53.637Z,96170.72
2023-11-14T10:26:55.261Z,96180.78
2023-11-14T10:28:58.813Z,96183.78
2023-11-14T10:31:15.228Z,96174.03
2023-11-14T10:33:19.075Z,96176.50
2023-11-14T10:35:22.668Z,96169.81
2023-11-14T10:37:32.459Z,96165.28
2023-11-14T10:39:34.034Z,96164.44
2023-11-14T10:41:35.680Z,96155.69
2023-11-14T10:43:37.644Z,96174.16
2023-11-14T10:45:39.349Z,96181.13
2023-11-14T10:47:42.413Z,96172.47
2023-11-14T10:49:47.214Z,96170.44
2023-11-14T10:51:51.646Z,96166.00
2023-11-14T10:53:54.260Z,96157.63
2023-11-14T10:55:56.610Z,96145.50
2023-11-14T10:57:58.544Z,96132.44
2023-11-14T11:00:01.578Z,96141.44
2023-11-14T11:02:04.350Z,96127.97
2023-11-14T11:04:07.587Z,96127.59
2023-11-14T11:06:09.570Z,96113.84
2023-11-14T11:08:14.105Z,96115.69
2023-11-14T11:10:16.886Z,96134.94
2023-11-14T11:12:18.964Z,96122.25
2023-11-14T11:14:22.601Z,96108.38
2023-11-14T11:16:44.145Z,96096.91
2023-11-14T11:18:47.105Z,96098.53
2023-11-14T11:20:49.175Z,96086.31
2023-11-14T11:23:05.153Z,96090.47
2023-11-14T11:25:23.327Z,96084.75
2023-11-14T11:27:24.926Z,96081.13
2023-11-14T11:29:49.484Z,96064.84
2023-11-14T11:32:24.584Z,96054.84
2023-11-14T11:34:28.996Z,96022.91
2023-11-14T11:36:33.763Z,96007.31
2023-11-14T11:38:35.295Z,96004.47
2023-11-14T11:41:14.580Z,95997.91
2023-11-14T11:43:18.657Z,95996.34
2023-11-14T11:45:33.439Z,95998.78
2023-11-14T11:47:35.599Z,95991.38
2023-11-14T11:49:37.600Z,95981.94
2023-11-14T11:51:39.977Z,95991.41
2023-11-14T11:53:41.630Z,95995.28
2023-11-14T11:55:44.550Z,96000.16
2023-11-14T11:57:46.083Z,96014.25
2023-11-14T12:00:19.322Z,96024.53
2023-11-14T12:02:22.123Z,96031.88
2023-11-14T12:04:24.843Z,96041.13
2023-11-14T12:06:27.321Z,96014.69
2023-11-14T12:08:28.887Z,96016.94
2023-11-14T12:10:30.434Z,96012.25
2023-11-14T12:12:37.958Z,96021.31
2023-11-14T12:14:40.277Z,96001.88
2023-11-14T12:16:42.257Z,95974.44
2023-11-14T12:18:43.772Z,95949.66
2023-11-14T12:20:46.461Z,95939.81
2023-11-14T12:22:48.636Z,95959.47
2023-11-14T12:24:50.216Z,95962.16
2023-11-14T12:26:51.962Z,95966.88
2023-11-14T12:28:56.519Z,95966.66
2023-11-14T12:30:58.369Z,95963.16
2023-11-14T12:33:05.611Z,95968.50
2023-11-14T12:35:08.329Z,95984.88
2023-11-14T12:37:12.392Z,95982.81
2023-11-14T12:39:15.306Z,95964.19
2023-11-14T12:41:18.564Z,95954.16
2023-11-14T12:43:20.169Z,95968.28
2023-11-14T12:45:23.073Z,95956.63
2023-11-14T12:47:24.706Z,95960.72
2023-11-14T12:49:26.299Z,95971.72
2023-11-14T12:51:27.846Z,95984.81
2023-11-14T12:53:31.028Z,95992.44
2023-11-14T12:55:32.614Z,95973.59
2023-11-14T12:57:34.569Z,95969.66
2023-11-14T12:59:36.885Z,95964.75
2023-11-14T13:01:41.463Z,95960.66
2023-11-14T13:03:43.037Z,95945.09
2023-11-14T13:05:44.674Z,95945.53
2023-11-14T13:07:46.228Z,95943.09
2023-11-14T13:09:47.822Z,95934.50
2023-11-14T13:11:49.440Z,95917.91
2023-11-14T13:13:51.032Z,95907.00
2023-11-14T13:15:52.564Z,95911.56
2023-11-14T13:17:55.531Z,95922.63
2023-11-14T13:19:57.853Z,95928.72
2023-11-14T13:22:00.546Z,95928.31
2023-11-14T13:24:02.936Z,95932.84
2023-11-14T13:26:05.070Z,95938.59
2023-11-14T13:28:06.597Z,95939.63
2023-11-14T13:30:09.024Z,95931.41
2023-11-14T13:32:10.687Z,95924.88
2023-11-14T13:34:13.632Z,95924.25
2023-11-14T13:36:15.180Z,95912.75
2023-11-14T13:38:16.799Z,95910.13
2023-11-14T13:40:18.322Z,95913.59
2023-11-14T13:42:19.848Z,95911.31
2023-11-14T13:44:21.381Z,95902.28
2023-11-14T13:46:27.569Z,95903.31
2023-11-14T13:48:30.314Z,95903.31
2023-11-14T13:50:33.213Z,95893.94
2023-11-14T13:52:34.777Z,95888.22
2023-11-14T13:54:37.115Z,95895.59
2023-11-14T13:56:38.690Z,95898.00
2023-11-14T13:58:40.286Z,95905.16
2023-11-14T14:00:41.805Z,95916.81
2023-11-14T14:02:43.481Z,95925.88
2023-11-14T14:04:45.180Z,95931.59
2023-11-14T14:06:48.030Z,95927.28
2023-11-14T14:08:49.558Z,95917.25
2023-11-14T14:10:51.246Z,95941.41
2023-11-14T14:12:52.798Z,95933.19
2023-11-14T14:14:54.465Z,95921.75
2023-11-14T14:16:56.175Z,95916.03
2023-11-14T14:18:57.798Z,95913.94
2023-11-14T14:20:59.333Z,95901.47
2023-11-14T14:23:02.259Z,95901.66
2023-11-14T14:25:05.776Z,95896.34
2023-11-14T14:27:07.345Z,95876.28
2023-11-14T14:29:09.048Z,95869.09
2023-11-14T14:31:10.956Z,95862.56
2023-11-14T14:33:12.866Z,95872.59
2023-11-14T14:35:14.693Z,95888.16
2023-11-14T14:37:16.341Z,95888.16
2023-11-14T14:39:19.330Z,95886.91
2023-11-14T14:41:20.933Z,95886.91
2023-11-14T14:43:22.574Z,95890.16
2023-11-14T14:45:24.093Z,95900.41
2023-11-14T14:47:25.665Z,95904.50
2023-11-14T14:49:27.259Z,95904.06
2023-11-14T14:51:28.797Z,95908.78
2023-11-14T14:53:30.391Z,95906.13
2023-11-14T14:55:33.299Z,95899.56
2023-11-14T14:57:34.853Z,95900.16
2023-11-14T14:59:36.513Z,95899.53
2023-11-14T15:01:38.132Z,95888.91
2023-11-14T15:03:41.105Z,95882.34
2023-11-14T15:05:42.626Z,95888.72
2023-11-14T15:07:44.162Z,95900.16
2023-11-14T15:09:46.343Z,95895.84
2023-11-14T15:11:49.251Z,95894.41
2023-11-14T15:13:50.771Z,95886.81
2023-11-14T15:15:52.620Z,95874.88
2023-11-14T15:17:54.289Z,95882.91
2023-11-14T15:19:55.918Z,95884.34
2023-11-14T15:21:57.503Z,95876.38
2023-11-14T15:23:59.014Z,95868.38
2023-11-14T15:26:00.626Z,95867.13
2023-11-14T15:28:03.548Z,95856.47
2023-11-14T15:30:06.752Z,95842.78
2023-11-14T15:32:10.894Z,95840.56
2023-11-14T15:34:13.206Z,95827.03
2023-11-14T15:36:14.791Z,95827.47
2023-11-14T15:38:16.619Z,95815.97
2023-11-14T15:40:18.412Z,95818.50
2023-11-14T15:42:20.067Z,95813.78
2023-11-14T15:44:22.974Z,95814.81
2023-11-14T15:46:24.511Z,95811.91
2023-11-14T15:48:26.044Z,95809.84
2023-11-14T15:50:27.674Z,95807.38
2023-11-14T15:52:29.526Z,95801.63
2023-11-14T15:54:31.113Z,95803.69
2023-11-14T15:56:32.830Z,95787.06
2023-11-14T15:58:34.409Z,95815.53
2023-11-14T16:00:37.303Z,95804.03
2023-11-14T16:02:38.945Z,95795.31
2023-11-14T16:04:40.516Z,95798.97
2023-11-14T16:06:42.120Z,95791.63
2023-11-14T16:08:43.661Z,95783.59
2023-11-14T16:10:45.281Z,95781.97
2023-11-14T16:12:46.835Z,95784.00
2023-11-14T16:14:48.375Z,95779.91
2023-11-14T16:16:51.277Z,95768.84
2023-11-14T16:18:52.818Z,95768.84
2023-11-14T16:20:54.338Z,95759.84
2023-11-14T16:22:55.964Z,95758.22
2023-11-14T16:24:57.609Z,95755.16
2023-11-14T16:26:59.248Z,95754.34
2023-11-14T16:29:00.933Z,95749.22
2023-11-14T16:31:02.666Z,95746.34
2023-11-14T16:33:05.596Z,95745.31
2023-11-14T16:35:07.734Z,95746.75
2023-11-14T16:37:09.274Z,95747.16
2023-11-14T16:39:10.809Z,95736.72
2023-11-14T16:41:12.395Z,95753.72
2023-11-14T16:43:14.002Z,95745.53
2023-11-14T16:45:15.664Z,95744.69
2023-11-14T16:47:17.253Z,95743.88
2023-11-14T16:49:20.265Z,95750.44
2023-11-14T16:51:22.217Z,95761.88
2023-11-14T16:53:23.783Z,95757.75
2023-11-14T16:55:25.470Z,95754.28
2023-11-14T16:57:26.951Z,95734.44
2023-11-14T16:59:28.488Z,95728.50
2023-11-14T17:01:30.133Z,95712.38
2023-11-14T17:03:31.810Z,95712.38
2023-11-14T17:05:34.822Z,95729.56
2023-11-14T17:07:36.372Z,95715.63
2023-11-14T17:09:38.077Z,95720.13
2023-11-14T17:11:39.604Z,95708.25
2023-11-14T17:13:41.180Z,95700.47
2023-11-14T17:15:42.897Z,95711.94
2023-11-14T17:17:44.486Z,95701.13
2023-11-14T17:19:46.077Z,95692.72
2023-11-14T17:21:48.944Z,95684.94
2023-11-14T17:23:50.536Z,95666.97
2023-11-14T17:25:52.049Z,95670.66
2023-11-14T17:27:53.586Z,95677.59
2023-11-14T17:29:55.103Z,95675.97
2023-11-14T17:31:56.662Z,95674.69
2023-11-14T17:33:58.224Z,95676.72
2023-11-14T17:35:59.878Z,95675.69
2023-11-14T17:38:02.860Z,95673.84
2023-11-14T17:40:05.613Z,95678.38
2023-11-14T17:42:07.324Z,95703.28
2023-11-14T17:44:09.020Z,95688.59
2023-11-14T17:46:10.654Z,95692.66
2023-11-14T17:48:12.364Z,95696.09
2023-11-14T17:50:14.135Z,95697.09
2023-11-14T17:52:15.859Z,95698.38
2023-11-14T17:54:18.908Z,95697.06
2023-11-14T17:56:20.647Z,95700.38
2023-11-14T17:58:22.209Z,95700.34
2023-11-14T18:00:23.870Z,95703.22
2023-11-14T18:02:25.481Z,95698.31
2023-11-14T18:04:27.124Z,95690.13
2023-11-14T18:06:28.786Z,95684.78
2023-11-14T18:08:30.508Z,95686.00
2023-11-14T18:10:33.522Z,95686.06
2023-11-14T18:12:35.098Z,95681.38
2023-11-14T18:14:36.665Z,95670.94
2023-11-14T18:16:38.241Z,95682.78
2023-11-14T18:18:39.840Z,95677.03
2023-11-14T18:20:41.460Z,95688.88
2023-11-14T18:22:43.077Z,95671.78
2023-11-14T18:24:44.631Z,95673.81
2023-11-14T18:26:47.598Z,95684.81
2023-11-14T18:28:49.225Z,95668.03
2023-11-14T18:30:50.802Z,95682.75
2023-11-14T18:32:52.456Z,95668.91
2023-11-14T18:34:53.984Z,95669.91
2023-11-14T18:36:55.492Z,95668.66
2023-11-14T18:38:57.034Z,95665.00
2023-11-14T18:40:58.577Z,95670.53
2023-11-14T18:43:01.591Z,95673.84
2023-11-14T18:45:07.780Z,95672.56
2023-11-14T18:47:10.119Z,95670.09
2023-11-14T18:49:11.840Z,95673.78
2023-11-14T18:51:13.607Z,95682.00
2023-11-14T18:53:15.194Z,95675.41
2023-11-14T18:55:16.807Z,95676.22
2023-11-14T18:57:18.415Z,95663.59
2023-11-14T18:59:21.331Z,95669.69
2023-11-14T19:01:22.957Z,95657.03
2023-11-14T19:03:24.762Z,95667.69
2023-11-14T19:05:26.818Z,95670.94
2023-11-14T19:07:28.518Z,95681.38
2023-11-14T19:09:30.032Z,95683.81
2023-11-14T19:11:31.546Z,95681.16
2023-11-14T19:13:33.161Z,95666.06
2023-11-14T19:15:36.209Z,95674.66
2023-11-14T19:17:37.904Z,95668.09
2023-11-14T19:19:39.588Z,95673.19
2023-11-14T19:21:45.490Z,95677.06
2023-11-14T19:23:48.121Z,95683.03
2023-11-14T19:25:49.819Z,95684.81
2023-11-14T19:27:51.345Z,95690.97
2023-11-14T19:29:52.834Z,95698.47
2023-11-14T19:31:55.767Z,95697.94
2023-11-14T19:33:57.300Z,95704.41
2023-11-14T19:35:58.812Z,95703.44
2023-11-14T19:38:00.338Z,95696.91
2023-11-14T19:40:01.873Z,95712.25
2023-11-14T19:42:03.970Z,95698.38
2023-11-14T19:44:05.724Z,95708.84
2023-11-14T19:46:07.261Z,95709.22
2023-11-14T19:48:10.160Z,95706.91
2023-11-14T19:50:11.774Z,95699.38
2023-11-14T19:52:14.058Z,95696.28
2023-11-14T19:54:15.665Z,95704.25
2023-11-14T19:56:17.269Z,95703.22
2023-11-14T19:58:18.823Z,95690.97
2023-11-14T20:00:20.644Z,95703.44
2023-11-14T20:02:22.251Z,95704.03
2023-11-14T20:04:25.223Z,95701.75
2023-11-14T20:06:26.842Z,95705.84
2023-11-14T20:08:28.435Z,95705.25
2023-11-14T20:10:30.335Z,95709.72
2023-11-14T20:12:31.932Z,95715.50
2023-11-14T20:14:33.593Z,95714.41
2023-11-14T20:16:35.221Z,95717.69
2023-11-14T20:18:36.841Z,95725.44
2023-11-14T20:20:39.744Z,95720.34
2023-11-14T20:22:41.645Z,95723.22
2023-11-14T20:24:43.240Z,95717.56
2023-11-14T20:26:44.977Z,95721.94
2023-11-14T20:28:46.610Z,95734.53
2023-11-14T20:30:48.183Z,95732.09
2023-11-14T20:32:49.874Z,95734.00
2023-11-14T20:34:51.467Z,95740.31
2023-11-14T20:36:54.358Z,95743.81
2023-11-14T20:38:56.000Z,95750.78
2023-11-14T20:40:57.568Z,95747.50
2023-11-14T20:42:59.089Z,95750.56
2023-11-14T20:45:00.950Z,95747.50
2023-11-14T20:47:02.497Z,95750.34
2023-11-14T20:49:04.400Z,95747.84
2023-11-14T20:51:14.262Z,95757.28
2023-11-14T20:53:25.125Z,95757.28
2023-11-14T20:55:26.677Z,95769.59
2023-11-14T20:57:28.205Z,95773.44
2023-11-14T20:59:29.738Z,95774.06
2023-11-14T21:01:31.315Z,95776.50
2023-11-14T21:03:32.882Z,95781.41
2023-11-14T21:05:34.473Z,95793.25
2023-11-14T21:07:36.037Z,95788.34
2023-11-14T21:09:38.934Z,95799.44
2023-11-14T21:11:40.609Z,95798.19
2023-11-14T21:13:44.141Z,95810.69
2023-11-14T21:15:45.700Z,95814.13
2023-11-14T21:17:52.717Z,95821.69
2023-11-14T21:19:54.979Z,95841.91
2023-11-14T21:21:56.477Z,95844.75
2023-11-14T21:23:58.565Z,95826.59
2023-11-14T21:26:01.477Z,95839.22
2023-11-14T21:28:03.051Z,95848.41
2023-11-14T21:30:05.631Z,95860.06
2023-11-14T21:32:07.212Z,95849.59
2023-11-14T21:34:09.225Z,95850.22
2023-11-14T21:36:11.587Z,95859.31
2023-11-14T21:38:13.180Z,95871.94
2023-11-14T21:40:15.261Z,95869.88
2023-11-14T21:42:18.265Z,95878.78
2023-11-14T21:44:19.926Z,95878.16
2023-11-14T21:46:21.510Z,95872.66
2023-11-14T21:48:23.628Z,95887.34
2023-11-14T21:50:25.238Z,95893.28
2023-11-14T21:52:26.959Z,95888.59
2023-11-14T21:54:28.600Z,95888.59
2023-11-14T21:56:30.160Z,95896.03
2023-11-14T21:58:33.184Z,95897.63
2023-11-14T22:00:34.752Z,95900.47
2023-11-14T22:02:36.370Z,95907.56
2023-11-14T22:04:37.941Z,95909.81
2023-11-14T22:06:39.454Z,95894.72
2023-11-14T22:08:41.023Z,95902.44
2023-11-14T22:10:42.617Z,95900.84
2023-11-14T22:12:44.416Z,95916.41
2023-11-14T22:14:47.373Z,95906.97
2023-11-14T22:16:48.933Z,95915.13
2023-11-14T22:18:50.444Z,95917.66
2023-11-14T22:20:52.041Z,95916.06
2023-11-14T22:22:53.545Z,95931.94
2023-11-14T22:24:55.082Z,95932.00
2023-11-14T22:26:56.633Z,95935.03
2023-11-14T22:29:00.221Z,95948.41
2023-11-14T22:31:05.067Z,95951.78
2023-11-14T22:33:06.710Z,95953.34
2023-11-14T22:35:08.540Z,95954.34
2023-11-14T22:37:11.830Z,95955.69
2023-11-14T22:39:13.517Z,95967.56
2023-11-14T22:41:15.145Z,95975.34
2023-11-14T22:43:17.424Z,95968.44
2023-11-14T22:45:19.203Z,95974.78
2023-11-14T22:47:22.091Z,95991.72
2023-11-14T22:49:23.617Z,95968.44
2023-11-14T22:51:25.283Z,95978.31
2023-11-14T22:53:26.826Z,95986.03
2023-11-14T22:55:28.531Z,95979.88
2023-11-14T22:57:30.072Z,95986.03
2023-11-14T22:59:31.680Z,95981.63
2023-11-14T23:01:36.722Z,95982.88
2023-11-14T23:03:39.684Z,95984.91
2023-11-14T23:05:42.002Z,96002.63
2023-11-14T23:07:43.523Z,95997.78
2023-11-14T23:09:45.038Z,96007.78
2023-11-14T23:11:48.348Z,96014.16
2023-11-14T23:13:49.978Z,96005.13
2023-11-14T23:15:51.475Z,96020.28
2023-11-14T23:17:53.165Z,96026.88
2023-11-14T23:19:56.096Z,96028.25
2023-11-14T23:21:59.927Z,96041.50
2023-11-14T23:24:01.789Z,96044.09
2023-11-14T23:26:03.524Z,96054.19
2023-11-14T23:28:05.290Z,96057.72
2023-11-14T23:30:08.202Z,96056.34
2023-11-14T23:32:09.700Z,96059.69
2023-11-14T23:34:11.200Z,96066.19
2023-11-14T23:36:15.165Z,96066.94
2023-11-14T23:38:17.716Z,96073.16
2023-11-14T23:40:19.628Z,96080.47
2023-11-14T23:42:21.220Z,96089.44
2023-11-14T23:44:22.824Z,96077.00
2023-11-14T23:46:24.503Z,96091.34
2023-11-14T23:48:26.130Z,96095.19
2023-11-14T23:50:27.827Z,96104.09
2023-11-14T23:52:30.911Z,96097.34
2023-11-14T23:54:32.578Z,96099.16
2023-11-14T23:56:36.527Z,96107.75
2023-11-14T23:58:38.687Z,96112.91
